Аэропорт
Ханты-Мансийск (USHH)

 USHH / HMA
ЗЦ Екатеринбург
Тюмень (USTV)
Тюмень (USTV)
 61.02850, 69.08610  / 76 ft

 USHH 210130Z 05003MPS 2800 -SN BKN037 M22/M25 Q1010 R06/491033 TEMPO 2000 SN BKN005
 TAF USHH 202247Z 2100/2124 09005G11MPS 4000 -SN BKN020 TEMPO 2100/2109 2000 SN SCT003 BKN016 BECMG 2109/2111 06006G12MPS FM211500 04003G08MPS 5000 -SHSN FEW005 BKN020CB
USHH_j_0220
показать схемы
Название сценария Тип сценария Flight Simulator 9 Flight Simulator X Prepar3D v2 Prepar3D v3 Prepar3D v4 Prepar3D v5 xPlane
Khanty-Mansiysk USHH (P3Dv4.4+) бесплатный
Ханты-Мансийск USHH XP Aleksei Nelaev автор бесплатный


2020 © VATRUS division (Privacy Policy)